Time;durP1;ratioP1;P1;durP2;ratioP2;P2;SDS_P1;SDS_P2;PMS_P1;PMS_P2;Temp;Humidity;BMP_temperature;BMP_pressure;BME280_temperature;BME280_humidity;BME280_pressure;Samples;Min_cycle;Max_cycle;Signal;HPM_P1;HPM_P2
2022/03/13 00:00:41;;;;;;;301.83;66.10;;;;;;;-0.67;59.34;100910.81;342705;28;1206;-67
2022/03/13 00:00:59;;;;;;;300.80;64.57;;;;;;;-0.72;59.30;100907.25;340993;28;1228;-67
2022/03/13 00:01:14;;;;;;;300.98;65.82;;;;;;;-0.73;59.91;100902.06;339638;29;873;-67
2022/03/13 00:01:24;;;;;;;300.45;66.30;;;;;;;-0.76;59.88;100904.56;339476;28;1055;-67
2022/03/13 00:01:34;;;;;;;299.88;66.68;;;;;;;-0.75;59.68;100906.28;336534;29;1061;-67
2022/03/13 00:01:45;;;;;;;299.70;66.70;;;;;;;-0.75;60.01;100906.28;337861;28;1469;-67
2022/03/13 00:01:56;;;;;;;299.23;67.05;;;;;;;-0.74;59.82;100908.91;339913;29;1008;-67
2022/03/13 00:02:08;;;;;;;299.45;66.45;;;;;;;-0.75;60.25;100902.03;339732;29;884;-67
2022/03/13 00:02:19;;;;;;;299.85;66.53;;;;;;;-0.74;59.72;100902.91;335685;29;1802;-68
2022/03/13 00:02:29;;;;;;;300.03;66.67;;;;;;;-0.75;60.44;100907.16;337039;29;893;-67
2022/03/13 00:02:40;;;;;;;301.43;66.53;;;;;;;-0.76;60.18;100902.00;338455;29;1322;-67
2022/03/13 00:02:52;;;;;;;301.57;66.43;;;;;;;-0.74;59.99;100908.03;338573;29;886;-67
2022/03/13 00:03:03;;;;;;;303.00;66.63;;;;;;;-0.74;60.03;100905.47;338529;28;938;-67
2022/03/13 00:03:15;;;;;;;302.80;66.88;;;;;;;-0.72;60.06;100906.38;339811;29;1370;-67
2022/03/13 00:03:26;;;;;;;300.58;66.88;;;;;;;-0.75;60.24;100911.44;339751;29;1372;-67
2022/03/13 00:03:37;;;;;;;301.58;66.70;;;;;;;-0.76;60.28;100905.44;342444;28;1249;-68
2022/03/13 00:03:47;;;;;;;301.63;66.38;;;;;;;-0.73;60.10;100904.63;338498;29;914;-67
2022/03/13 00:04:00;;;;;;;302.23;66.40;;;;;;;-0.77;60.01;100903.69;338211;29;1733;-67
2022/03/13 00:04:13;;;;;;;300.85;66.38;;;;;;;-0.75;59.93;100901.16;338402;29;850;-68
2022/03/13 00:04:23;;;;;;;299.38;65.60;;;;;;;-0.76;59.94;100902.00;339853;29;918;-67
2022/03/13 00:04:37;;;;;;;297.13;64.23;;;;;;;-0.76;59.79;100899.41;339951;29;850;-67
2022/03/13 00:04:52;;;;;;;298.30;64.14;;;;;;;-0.75;60.11;100903.72;338377;29;1391;-68
2022/03/13 00:05:06;;;;;;;299.17;64.45;;;;;;;-0.75;59.44;100903.72;338396;29;974;-68
2022/03/13 00:05:17;;;;;;;298.80;63.92;;;;;;;-0.74;60.10;100905.47;337693;29;2564;-67
2022/03/13 00:05:27;;;;;;;300.20;64.18;;;;;;;-0.74;59.67;100903.78;340448;28;1311;-67
2022/03/13 00:05:40;;;;;;;302.03;65.27;;;;;;;-0.74;60.18;100902.91;342306;28;1075;-67
2022/03/13 00:05:51;;;;;;;302.42;65.60;;;;;;;-0.74;59.77;100902.91;338401;29;1329;-67
2022/03/13 00:06:02;;;;;;;301.60;66.05;;;;;;;-0.74;59.57;100902.91;339655;29;901;-67
2022/03/13 00:06:12;;;;;;;300.70;66.22;;;;;;;-0.77;59.65;100901.13;340454;28;1110;-67
2022/03/13 00:06:30;;;;;;;301.07;67.03;;;;;;;-0.80;59.75;100902.75;337091;29;928;-67
2022/03/13 00:06:43;;;;;;;300.42;66.85;;;;;;;-0.79;59.95;100907.03;336404;29;937;-67
2022/03/13 00:06:55;;;;;;;301.83;67.45;;;;;;;-0.81;59.69;100904.44;338493;28;1395;-68
2022/03/13 00:07:09;;;;;;;301.90;66.75;;;;;;;-0.79;59.64;100900.22;339485;28;1357;-68
2022/03/13 00:07:25;;;;;;;299.48;64.75;;;;;;;-0.78;59.53;100899.38;340498;28;1073;-69
2022/03/13 00:07:38;;;;;;;298.40;63.85;;;;;;;-0.78;59.26;100901.09;338562;28;899;-68
2022/03/13 00:07:48;;;;;;;298.55;64.55;;;;;;;-0.77;59.85;100900.25;338621;29;1309;-67
2022/03/13 00:08:00;;;;;;;298.53;65.17;;;;;;;-0.78;59.76;100895.94;342487;28;893;-67
2022/03/13 00:08:27;;;;;;;301.55;66.00;;;;;;;-0.80;59.40;100900.16;342121;28;1263;-67
2022/03/13 00:08:40;;;;;;;299.35;64.43;;;;;;;-0.78;59.05;100901.09;341101;28;894;-67
2022/03/13 00:08:52;;;;;;;297.88;64.80;;;;;;;-0.79;59.84;100904.47;338612;29;1460;-67
2022/03/13 00:09:05;;;;;;;297.10;64.60;;;;;;;-0.80;59.71;100895.03;342017;28;1953;-67
2022/03/13 00:09:15;;;;;;;298.80;64.78;;;;;;;-0.81;59.32;100896.72;343936;28;913;-67
2022/03/13 00:09:26;;;;;;;300.63;66.10;;;;;;;-0.82;59.11;100905.28;342459;28;1038;-67
2022/03/13 00:09:37;;;;;;;301.17;66.50;;;;;;;-0.82;59.76;100901.84;342499;28;866;-67
2022/03/13 00:09:50;;;;;;;300.27;65.80;;;;;;;-0.83;59.49;100900.97;342219;28;2150;-67
2022/03/13 00:10:00;;;;;;;299.30;65.63;;;;;;;-0.81;58.90;100903.56;341747;28;1682;-67
2022/03/13 00:10:11;;;;;;;300.67;66.70;;;;;;;-0.80;59.24;100903.59;340909;28;838;-67
2022/03/13 00:10:25;;;;;;;300.13;66.53;;;;;;;-0.77;59.66;100902.81;339999;29;952;-67
2022/03/13 00:10:36;;;;;;;298.15;65.50;;;;;;;-0.77;59.33;100905.38;340983;28;1658;-67
2022/03/13 00:10:48;;;;;;;299.42;65.72;;;;;;;-0.79;59.62;100904.47;342527;28;1922;-67
2022/03/13 00:11:07;;;;;;;301.35;65.97;;;;;;;-0.78;60.07;100904.53;344086;28;1496;-67
2022/03/13 00:11:18;;;;;;;301.10;65.88;;;;;;;-0.78;59.78;100901.09;341776;28;1930;-67
2022/03/13 00:11:30;;;;;;;301.10;66.57;;;;;;;-0.77;60.07;100902.81;337967;29;960;-67
2022/03/13 00:11:43;;;;;;;302.23;67.88;;;;;;;-0.78;59.68;100901.94;337874;29;1571;-67
2022/03/13 00:11:53;;;;;;;303.77;68.97;;;;;;;-0.76;59.89;100902.00;342324;28;908;-67
2022/03/13 00:12:10;;;;;;;302.53;67.40;;;;;;;-0.75;59.75;100903.72;341961;28;1655;-67
2022/03/13 00:12:25;;;;;;;300.00;65.38;;;;;;;-0.76;60.13;100905.44;340145;28;1414;-67
2022/03/13 00:12:37;;;;;;;299.50;64.68;;;;;;;-0.77;60.00;100897.69;340171;29;897;-67
2022/03/13 00:12:48;;;;;;;300.24;65.52;;;;;;;-0.75;60.03;100901.16;341570;28;857;-67
2022/03/13 00:12:59;;;;;;;301.43;66.17;;;;;;;-0.75;59.95;100898.59;341328;28;1568;-67
2022/03/13 00:13:14;;;;;;;300.92;66.25;;;;;;;-0.74;60.42;100900.31;340959;28;863;-67
2022/03/13 00:13:32;;;;;;;301.25;66.97;;;;;;;-0.74;59.71;100902.91;340318;29;865;-67
2022/03/13 00:13:51;;;;;;;301.15;66.40;;;;;;;-0.74;59.88;100901.19;341514;28;906;-67
2022/03/13 00:14:02;;;;;;;300.55;66.13;;;;;;;-0.72;60.07;100893.53;339943;29;1725;-67
2022/03/13 00:14:13;;;;;;;300.05;65.57;;;;;;;-0.70;60.02;100897.00;341282;28;1407;-67
2022/03/13 00:14:27;;;;;;;299.70;65.35;;;;;;;-0.71;59.66;100897.84;341541;28;941;-67
2022/03/13 00:14:40;;;;;;;300.88;65.63;;;;;;;-0.70;59.91;100899.56;342911;28;940;-67
2022/03/13 00:14:51;;;;;;;303.23;67.00;;;;;;;-0.70;59.97;100900.44;343150;28;1632;-67
2022/03/13 00:15:03;;;;;;;303.27;66.80;;;;;;;-0.70;59.92;100895.31;344028;28;1036;-67
2022/03/13 00:15:15;;;;;;;301.00;66.53;;;;;;;-0.71;59.94;100895.25;342938;28;890;-67
2022/03/13 00:15:32;;;;;;;300.42;65.88;;;;;;;-0.71;60.13;100898.72;337344;29;1497;-67
2022/03/13 00:15:43;;;;;;;299.23;65.60;;;;;;;-0.75;60.67;100898.59;340980;28;1817;-67
2022/03/13 00:15:53;;;;;;;297.80;65.63;;;;;;;-0.75;60.18;100893.44;343512;28;1347;-67
2022/03/13 00:16:08;;;;;;;299.20;66.50;;;;;;;-0.77;60.53;100902.81;345296;28;1230;-67
2022/03/13 00:16:19;;;;;;;300.80;67.18;;;;;;;-0.79;60.71;100895.06;340872;28;877;-68
2022/03/13 00:16:29;;;;;;;300.53;66.77;;;;;;;-0.80;60.59;100893.34;340535;28;1310;-67
2022/03/13 00:16:39;;;;;;;300.52;67.30;;;;;;;-0.80;60.50;100898.47;340685;28;1240;-67
2022/03/13 00:16:50;;;;;;;301.30;67.73;;;;;;;-0.80;60.77;100893.34;340636;28;781;-67
2022/03/13 00:17:01;;;;;;;299.98;67.15;;;;;;;-0.80;60.58;100892.47;341446;28;838;-67
2022/03/13 00:17:13;;;;;;;299.83;66.07;;;;;;;-0.80;60.59;100895.91;340019;29;1268;-67
2022/03/13 00:17:30;;;;;;;300.35;65.22;;;;;;;-0.81;60.51;100894.16;340081;29;1792;-67
2022/03/13 00:17:44;;;;;;;301.00;64.65;;;;;;;-0.81;60.38;100895.84;341487;28;1318;-67
2022/03/13 00:17:55;;;;;;;300.38;64.68;;;;;;;-0.81;60.25;100894.16;342831;28;1357;-67
2022/03/13 00:18:06;;;;;;;298.40;64.65;;;;;;;-0.80;60.31;100895.91;342618;28;1358;-67
2022/03/13 00:18:17;;;;;;;297.65;64.53;;;;;;;-0.78;60.40;100895.94;344004;28;881;-67
2022/03/13 00:18:27;;;;;;;297.17;63.93;;;;;;;-0.78;60.43;100893.38;342874;28;869;-67
2022/03/13 00:18:46;;;;;;;297.70;64.28;;;;;;;-0.76;60.38;100891.72;342874;28;896;-67
2022/03/13 00:18:59;;;;;;;301.17;64.40;;;;;;;-0.77;60.62;100895.97;339987;29;1411;-67
2022/03/13 00:19:10;;;;;;;301.95;65.10;;;;;;;-0.76;60.28;100904.56;341441;28;964;-67
2022/03/13 00:19:22;;;;;;;301.17;65.22;;;;;;;-0.78;60.25;100896.81;341239;28;941;-68
2022/03/13 00:19:33;;;;;;;299.58;65.00;;;;;;;-0.77;60.74;100895.09;339527;29;2649;-67
2022/03/13 00:19:44;;;;;;;299.60;65.23;;;;;;;-0.79;60.08;100891.63;340153;29;1243;-67
2022/03/13 00:20:00;;;;;;;299.42;65.25;;;;;;;-0.78;60.34;100893.38;340026;29;814;-67
2022/03/13 00:20:11;;;;;;;300.55;65.70;;;;;;;-0.76;60.26;100889.13;341528;28;1071;-67
2022/03/13 00:20:22;;;;;;;302.40;66.50;;;;;;;-0.75;59.87;100893.44;341359;28;1336;-67
2022/03/13 00:20:33;;;;;;;300.80;66.20;;;;;;;-0.75;60.32;100890.88;341623;28;858;-67
2022/03/13 00:20:44;;;;;;;300.58;66.22;;;;;;;-0.77;60.47;100892.53;340086;28;1734;-67
2022/03/13 00:20:55;;;;;;;299.45;65.97;;;;;;;-0.76;60.30;100884.00;341360;28;1351;-68
2022/03/13 00:21:06;;;;;;;300.92;66.00;;;;;;;-0.77;60.35;100893.41;339707;29;1329;-67
2022/03/13 00:21:17;;;;;;;299.55;64.50;;;;;;;-0.78;60.37;100880.53;339859;29;874;-69
2022/03/13 00:21:28;;;;;;;298.60;63.90;;;;;;;-0.77;60.34;100887.41;338224;29;825;-67
2022/03/13 00:21:40;;;;;;;299.50;65.43;;;;;;;-0.78;60.08;100885.66;337819;28;1307;-67
2022/03/13 00:21:52;;;;;;;299.40;66.78;;;;;;;-0.77;60.34;100884.81;339129;29;834;-67
2022/03/13 00:22:04;;;;;;;299.48;66.00;;;;;;;-0.79;59.65;100889.94;338572;28;2911;-67
2022/03/13 00:22:15;;;;;;;299.20;64.65;;;;;;;-0.79;59.72;100883.91;339801;28;1639;-67
2022/03/13 00:22:27;;;;;;;300.13;64.97;;;;;;;-0.78;60.50;100888.22;338787;28;1648;-67
2022/03/13 00:22:38;;;;;;;300.20;65.57;;;;;;;-0.78;60.18;100888.22;340191;29;1008;-67
2022/03/13 00:22:48;;;;;;;299.87;65.23;;;;;;;-0.78;60.23;100885.66;340232;29;794;-67
2022/03/13 00:22:58;;;;;;;299.60;64.68;;;;;;;-0.76;59.99;100884.00;340102;29;948;-67
2022/03/13 00:23:10;;;;;;;301.13;64.00;;;;;;;-0.78;60.79;100886.53;340040;29;1082;-67
2022/03/13 00:23:20;;;;;;;302.65;65.10;;;;;;;-0.79;60.94;100878.78;339976;29;1344;-67
2022/03/13 00:23:32;;;;;;;300.33;64.37;;;;;;;-0.78;60.92;100880.53;338635;29;1364;-67
2022/03/13 00:23:42;;;;;;;297.63;64.40;;;;;;;-0.78;61.08;100885.66;339951;29;1024;-67
2022/03/13 00:23:53;;;;;;;298.03;64.40;;;;;;;-0.80;61.63;100882.19;340193;29;814;-67
2022/03/13 00:24:04;;;;;;;298.15;64.57;;;;;;;-0.80;61.21;100882.19;340338;28;1104;-67
2022/03/13 00:24:14;;;;;;;298.17;64.40;;;;;;;-0.81;61.06;100886.44;341200;28;1226;-67
2022/03/13 00:24:25;;;;;;;297.23;64.22;;;;;;;-0.81;60.66;100888.16;340298;28;1589;-67
2022/03/13 00:24:35;;;;;;;298.00;64.87;;;;;;;-0.82;61.10;100881.28;344135;28;1484;-67
2022/03/13 00:24:46;;;;;;;299.38;65.43;;;;;;;-0.83;61.12;100882.09;342594;28;1355;-67
2022/03/13 00:24:56;;;;;;;300.27;65.93;;;;;;;-0.84;61.06;100886.38;342751;28;1102;-66
2022/03/13 00:25:08;;;;;;;300.08;64.95;;;;;;;-0.85;60.19;100878.63;342827;28;1152;-66
2022/03/13 00:25:18;;;;;;;297.10;63.70;;;;;;;-0.85;61.03;100883.75;341505;28;854;-67
2022/03/13 00:25:29;;;;;;;296.00;63.83;;;;;;;-0.85;60.89;100883.75;341519;28;878;-67
2022/03/13 00:25:40;;;;;;;297.00;64.63;;;;;;;-0.86;60.63;100879.44;339796;29;1115;-67
2022/03/13 00:25:50;;;;;;;298.45;64.82;;;;;;;-0.87;60.82;100882.88;341351;28;996;-67
2022/03/13 00:26:01;;;;;;;297.80;64.33;;;;;;;-0.88;60.82;100879.44;342831;28;858;-67
2022/03/13 00:26:12;;;;;;;299.05;64.38;;;;;;;-0.88;60.69;100878.56;344113;28;1289;-67
2022/03/13 00:26:23;;;;;;;301.00;64.97;;;;;;;-0.89;60.31;100881.97;341440;28;1492;-67
2022/03/13 00:26:35;;;;;;;300.57;65.37;;;;;;;-0.88;60.71;100886.28;339205;28;3695;-67
2022/03/13 00:26:46;;;;;;;298.13;65.63;;;;;;;-0.90;60.66;100880.25;339531;28;1459;-67
2022/03/13 00:26:56;;;;;;;297.20;64.82;;;;;;;-0.90;60.64;100880.25;342481;28;1356;-67
2022/03/13 00:27:08;;;;;;;297.90;64.53;;;;;;;-0.91;60.48;100883.63;341317;28;844;-67
2022/03/13 00:27:18;;;;;;;299.33;64.28;;;;;;;-0.90;61.42;100875.09;343895;28;1320;-67
2022/03/13 00:27:31;;;;;;;299.23;64.50;;;;;;;-0.91;61.29;100879.38;341381;28;1211;-67
2022/03/13 00:27:41;;;;;;;299.77;65.10;;;;;;;-0.89;61.41;100881.97;344067;28;943;-67
2022/03/13 00:27:52;;;;;;;300.23;65.93;;;;;;;-0.90;61.28;100882.81;342894;28;871;-67
2022/03/13 00:28:03;;;;;;;299.65;65.78;;;;;;;-0.90;60.81;100880.25;341446;28;1475;-67
2022/03/13 00:28:14;;;;;;;299.54;65.58;;;;;;;-0.89;60.91;100874.25;342690;28;868;-67
2022/03/13 00:28:24;;;;;;;299.90;65.80;;;;;;;-0.89;60.61;100881.97;342743;28;1423;-66
2022/03/13 00:28:36;;;;;;;300.47;66.10;;;;;;;-0.88;60.65;100878.56;342601;28;864;-66
2022/03/13 00:28:47;;;;;;;299.67;64.93;;;;;;;-0.86;60.69;100882.03;342749;28;865;-66
2022/03/13 00:28:57;;;;;;;298.95;64.38;;;;;;;-0.85;60.37;100878.63;342551;28;1344;-67
2022/03/13 00:29:09;;;;;;;298.77;64.30;;;;;;;-0.85;60.42;100878.63;342714;28;1161;-67
2022/03/13 00:29:19;;;;;;;298.90;64.72;;;;;;;-0.85;60.46;100884.63;344109;28;1599;-66
2022/03/13 00:29:30;;;;;;;299.23;64.97;;;;;;;-0.86;60.62;100870.03;342876;28;1067;-66
2022/03/13 00:29:41;;;;;;;298.23;65.05;;;;;;;-0.83;60.28;100884.66;342610;28;1302;-67
2022/03/13 00:29:52;;;;;;;297.60;64.78;;;;;;;-0.83;60.13;100871.81;341320;28;1049;-68
2022/03/13 00:30:05;;;;;;;300.02;65.32;;;;;;;-0.84;59.91;100873.53;341314;28;1249;-66
2022/03/13 00:30:19;;;;;;;301.42;66.15;;;;;;;-0.82;60.27;100883.84;341320;28;988;-67
2022/03/13 00:30:29;;;;;;;299.55;65.25;;;;;;;-0.81;60.11;100880.44;341492;28;869;-67
2022/03/13 00:30:41;;;;;;;298.90;64.50;;;;;;;-0.83;60.11;100882.09;342588;28;1326;-67
2022/03/13 00:30:51;;;;;;;297.85;64.18;;;;;;;-0.84;60.29;100878.66;343942;28;948;-67
2022/03/13 00:31:02;;;;;;;298.35;64.22;;;;;;;-0.83;60.04;100882.09;343862;28;812;-67
2022/03/13 00:31:12;;;;;;;298.13;64.20;;;;;;;-0.83;60.08;100884.66;343971;28;1059;-67
2022/03/13 00:31:23;;;;;;;297.40;64.40;;;;;;;-0.82;59.36;100876.13;338888;29;2054;-66
2022/03/13 00:31:34;;;;;;;298.38;65.72;;;;;;;-0.83;59.48;100879.53;338295;29;926;-67
2022/03/13 00:31:44;;;;;;;300.05;66.68;;;;;;;-0.83;59.88;100876.97;336700;29;877;-67
2022/03/13 00:31:55;;;;;;;300.67;66.17;;;;;;;-0.82;59.79;100879.56;342608;28;1236;-67
2022/03/13 00:32:05;;;;;;;297.83;64.90;;;;;;;-0.85;59.96;100879.50;342454;28;974;-66
2022/03/13 00:32:16;;;;;;;297.92;64.70;;;;;;;-0.84;59.73;100878.66;341077;28;1749;-68
2022/03/13 00:32:26;;;;;;;297.47;64.73;;;;;;;-0.84;60.12;100880.38;341659;28;853;-68
2022/03/13 00:32:37;;;;;;;298.02;64.88;;;;;;;-0.83;59.81;100880.41;339288;28;1822;-67
2022/03/13 00:32:48;;;;;;;297.50;64.37;;;;;;;-0.83;60.31;100874.41;340059;29;905;-67
2022/03/13 00:33:00;;;;;;;298.13;64.85;;;;;;;-0.81;59.63;100875.31;342764;28;952;-67
2022/03/13 00:33:10;;;;;;;297.32;64.52;;;;;;;-0.81;59.27;100883.88;341256;28;1498;-67
2022/03/13 00:33:21;;;;;;;299.37;65.03;;;;;;;-0.81;59.77;100876.19;342644;28;1536;-67
2022/03/13 00:33:31;;;;;;;299.97;64.53;;;;;;;-0.80;59.40;100879.63;343829;28;1203;-67
2022/03/13 00:33:42;;;;;;;299.23;64.57;;;;;;;-0.79;59.86;100881.34;342666;28;1204;-67
2022/03/13 00:33:52;;;;;;;298.63;64.77;;;;;;;-0.78;59.82;100877.94;339862;29;868;-66
2022/03/13 00:34:02;;;;;;;296.77;64.77;;;;;;;-0.80;59.64;100885.63;338080;29;1958;-67
2022/03/13 00:34:13;;;;;;;296.77;64.93;;;;;;;-0.81;60.29;100881.31;341122;28;1311;-66
2022/03/13 00:34:23;;;;;;;295.77;64.55;;;;;;;-0.80;60.13;100884.75;341214;28;1347;-66
2022/03/13 00:34:34;;;;;;;296.20;64.35;;;;;;;-0.82;59.76;100884.72;342117;28;818;-66
2022/03/13 00:34:45;;;;;;;295.58;63.47;;;;;;;-0.82;59.96;100878.69;341342;28;1348;-68
2022/03/13 00:34:55;;;;;;;295.60;62.97;;;;;;;-0.79;59.80;100884.78;342831;28;1015;-68
2022/03/13 00:35:05;;;;;;;296.03;63.10;;;;;;;-0.81;58.96;100878.75;342627;28;1028;-68
2022/03/13 00:35:16;;;;;;;294.57;62.40;;;;;;;-0.80;59.89;100877.03;340058;29;992;-68
2022/03/13 00:35:27;;;;;;;296.15;63.38;;;;;;;-0.80;59.33;100879.63;342768;28;942;-68
2022/03/13 00:35:38;;;;;;;297.13;62.85;;;;;;;-0.81;59.19;100881.31;340574;28;1257;-68
2022/03/13 00:35:49;;;;;;;298.60;62.92;;;;;;;-0.79;59.65;100878.78;342659;28;1359;-68
2022/03/13 00:35:59;;;;;;;299.05;62.72;;;;;;;-0.77;59.47;100877.13;341548;28;980;-68
2022/03/13 00:36:10;;;;;;;298.30;62.73;;;;;;;-0.78;59.06;100880.53;341699;28;1522;-68
2022/03/13 00:36:20;;;;;;;297.25;62.92;;;;;;;-0.80;59.25;100879.63;341983;28;864;-67
2022/03/13 00:36:31;;;;;;;295.93;63.70;;;;;;;-0.81;59.28;100880.44;340737;28;809;-68
2022/03/13 00:36:41;;;;;;;297.40;65.20;;;;;;;-0.81;59.38;100880.44;339358;28;1181;-67
2022/03/13 00:36:51;;;;;;;299.27;65.57;;;;;;;-0.81;59.23;100877.88;340481;28;1297;-66
2022/03/13 00:37:02;;;;;;;299.92;64.28;;;;;;;-0.81;59.21;100883.88;341250;28;790;-67
2022/03/13 00:37:12;;;;;;;298.25;62.90;;;;;;;-0.81;59.15;100880.44;338805;29;1247;-67
2022/03/13 00:37:23;;;;;;;296.07;62.63;;;;;;;-0.82;59.13;100881.28;342531;28;1295;-67
2022/03/13 00:37:33;;;;;;;296.00;64.72;;;;;;;-0.81;59.05;100881.31;342778;28;966;-67
2022/03/13 00:37:44;;;;;;;298.23;66.13;;;;;;;-0.83;59.35;100880.41;342513;28;1452;-66
2022/03/13 00:37:54;;;;;;;298.98;66.20;;;;;;;-0.82;59.44;100878.69;341107;28;1495;-67
2022/03/13 00:38:08;;;;;;;298.60;64.77;;;;;;;-0.83;59.03;100879.53;342649;28;1426;-67
2022/03/13 00:38:19;;;;;;;298.55;64.40;;;;;;;-0.84;59.06;100880.38;341248;28;902;-67
2022/03/13 00:38:29;;;;;;;299.75;65.03;;;;;;;-0.85;59.31;100878.63;341636;28;1013;-67
2022/03/13 00:38:39;;;;;;;299.93;65.37;;;;;;;-0.86;59.13;100879.44;342667;28;992;-67
2022/03/13 00:38:50;;;;;;;298.13;64.35;;;;;;;-0.89;59.17;100881.97;339709;29;2156;-67
2022/03/13 00:39:00;;;;;;;296.67;63.70;;;;;;;-0.87;59.50;100881.19;342383;28;1395;-66
2022/03/13 00:39:11;;;;;;;295.55;62.97;;;;;;;-0.87;59.08;100883.75;341351;28;885;-66
2022/03/13 00:39:22;;;;;;;297.60;63.95;;;;;;;-0.87;59.37;100878.63;341673;28;1022;-66
2022/03/13 00:39:32;;;;;;;298.53;64.23;;;;;;;-0.87;59.38;100880.31;340109;29;1697;-66
2022/03/13 00:39:44;;;;;;;298.63;65.20;;;;;;;-0.87;59.30;100875.19;344066;28;1344;-66
2022/03/13 00:39:56;;;;;;;298.60;65.47;;;;;;;-0.86;59.44;100876.88;342851;28;833;-66
2022/03/13 00:40:08;;;;;;;298.67;65.57;;;;;;;-0.87;59.11;100875.19;343039;28;1367;-66
2022/03/13 00:40:18;;;;;;;297.92;65.25;;;;;;;-0.87;59.34;100878.63;342684;28;951;-66
2022/03/13 00:40:29;;;;;;;298.23;65.30;;;;;;;-0.87;59.30;100877.75;342803;28;1212;-66
2022/03/13 00:40:40;;;;;;;296.92;64.53;;;;;;;-0.85;59.51;100878.63;342526;28;1875;-66
2022/03/13 00:40:55;;;;;;;296.88;63.92;;;;;;;-0.86;59.62;100871.75;342622;28;857;-66
2022/03/13 00:41:05;;;;;;;296.70;63.53;;;;;;;-0.86;59.55;100874.31;341357;28;1396;-66
2022/03/13 00:41:15;;;;;;;297.63;63.93;;;;;;;-0.85;59.64;100881.19;343670;28;925;-67
2022/03/13 00:41:26;;;;;;;299.38;65.20;;;;;;;-0.86;59.43;100876.88;342530;28;743;-67
2022/03/13 00:41:36;;;;;;;298.87;66.03;;;;;;;-0.87;59.34;100881.19;339259;28;1437;-67
2022/03/13 00:41:47;;;;;;;297.60;65.72;;;;;;;-0.87;59.37;100876.06;340628;28;1020;-66
2022/03/13 00:41:57;;;;;;;295.58;64.78;;;;;;;-0.86;59.46;100874.31;341180;28;1356;-66
2022/03/13 00:42:08;;;;;;;295.77;64.33;;;;;;;-0.86;59.70;100869.19;341138;28;1283;-66
2022/03/13 00:42:18;;;;;;;296.77;64.18;;;;;;;-0.86;59.49;100875.19;341211;28;1726;-67
2022/03/13 00:42:28;;;;;;;297.23;64.37;;;;;;;-0.85;59.66;100881.19;341201;28;1407;-67
2022/03/13 00:42:39;;;;;;;297.27;63.63;;;;;;;-0.86;59.98;100877.75;341522;28;1208;-66
2022/03/13 00:42:49;;;;;;;297.53;63.57;;;;;;;-0.86;60.10;100872.63;341422;28;1781;-66
2022/03/13 00:43:00;;;;;;;297.77;63.47;;;;;;;-0.87;59.73;100872.59;341344;28;798;-66
2022/03/13 00:43:11;;;;;;;299.17;64.73;;;;;;;-0.87;59.74;100868.34;342528;28;1182;-66
2022/03/13 00:43:23;;;;;;;299.58;65.03;;;;;;;-0.87;59.66;100876.06;340004;29;897;-66
2022/03/13 00:43:33;;;;;;;298.10;64.34;;;;;;;-0.88;59.78;100870.88;340036;29;2136;-66
2022/03/13 00:43:44;;;;;;;297.00;63.97;;;;;;;-0.87;59.96;100877.75;343641;28;1966;-66
2022/03/13 00:43:54;;;;;;;297.27;64.63;;;;;;;-0.87;59.68;100875.19;342944;28;996;-66
2022/03/13 00:44:05;;;;;;;298.85;64.95;;;;;;;-0.88;60.25;100868.31;342240;28;1840;-66
2022/03/13 00:44:16;;;;;;;297.73;64.38;;;;;;;-0.88;60.52;100878.56;339778;29;1277;-67
2022/03/13 00:44:26;;;;;;;298.30;64.63;;;;;;;-0.92;60.31;100872.50;340163;29;749;-66
2022/03/13 00:44:36;;;;;;;298.00;65.10;;;;;;;-0.93;60.80;100875.00;338690;29;947;-66
2022/03/13 00:44:49;;;;;;;300.90;65.33;;;;;;;-0.95;60.24;100876.69;338795;29;873;-67
2022/03/13 00:44:59;;;;;;;300.55;65.15;;;;;;;-0.95;60.46;100872.41;340014;29;976;-67
2022/03/13 00:45:09;;;;;;;299.77;64.50;;;;;;;-0.95;60.32;100876.69;338614;29;878;-67
2022/03/13 00:45:20;;;;;;;297.15;63.80;;;;;;;-0.96;60.49;100874.94;340024;29;1014;-67
2022/03/13 00:45:30;;;;;;;296.20;63.67;;;;;;;-0.99;60.32;100870.59;338775;28;1303;-66
2022/03/13 00:45:41;;;;;;;296.58;63.67;;;;;;;-0.99;60.63;100874.84;340478;28;1634;-67
2022/03/13 00:45:52;;;;;;;297.57;63.67;;;;;;;-1.01;60.48;100870.56;342669;28;1313;-67
2022/03/13 00:46:02;;;;;;;298.75;63.53;;;;;;;-1.02;60.24;100873.94;339784;28;1621;-67
2022/03/13 00:46:12;;;;;;;299.52;64.38;;;;;;;-1.03;60.60;100874.78;342666;28;1386;-67
2022/03/13 00:46:23;;;;;;;299.03;64.83;;;;;;;-1.07;60.75;100872.94;342828;28;995;-67
2022/03/13 00:46:33;;;;;;;297.63;64.63;;;;;;;-1.09;61.35;100872.03;343360;28;880;-68
2022/03/13 00:46:44;;;;;;;296.93;64.60;;;;;;;-1.07;60.50;100872.09;339043;28;1286;-66
2022/03/13 00:46:54;;;;;;;296.88;65.13;;;;;;;-1.06;60.59;100873.81;342452;28;894;-66
2022/03/13 00:47:05;;;;;;;297.97;65.17;;;;;;;-1.05;61.08;100875.56;343937;28;920;-66
2022/03/13 00:47:20;;;;;;;299.00;65.00;;;;;;;-1.05;60.40;100871.28;342578;28;1172;-66
2022/03/13 00:47:30;;;;;;;300.88;64.63;;;;;;;-1.06;59.85;100879.84;339969;29;902;-67
2022/03/13 00:47:41;;;;;;;302.55;64.70;;;;;;;-1.07;60.22;100872.09;342696;28;1012;-67
2022/03/13 00:47:51;;;;;;;304.70;64.27;;;;;;;-1.09;60.10;100879.75;342753;28;1275;-66
2022/03/13 00:48:02;;;;;;;304.67;64.43;;;;;;;-1.08;60.34;100873.78;343360;28;1258;-66
2022/03/13 00:48:12;;;;;;;303.63;64.00;;;;;;;-1.08;60.09;100878.91;343812;28;873;-66
2022/03/13 00:48:24;;;;;;;301.75;63.90;;;;;;;-1.08;60.77;100878.03;342172;28;2068;-66
2022/03/13 00:48:34;;;;;;;301.33;63.50;;;;;;;-1.10;60.03;100875.44;340842;28;1066;-67
2022/03/13 00:48:46;;;;;;;303.52;62.97;;;;;;;-1.08;60.13;100878.91;341586;28;1438;-67
2022/03/13 00:48:56;;;;;;;304.48;63.42;;;;;;;-1.08;60.58;100870.34;341700;28;1229;-68
2022/03/13 00:49:06;;;;;;;303.33;63.63;;;;;;;-1.08;60.62;100875.47;342480;28;1484;-68
2022/03/13 00:49:17;;;;;;;302.90;63.70;;;;;;;-1.07;60.64;100870.38;342618;28;1445;-67
2022/03/13 00:49:27;;;;;;;303.53;63.23;;;;;;;-1.06;60.58;100878.97;341470;28;1267;-66
2022/03/13 00:49:38;;;;;;;303.95;63.10;;;;;;;-1.06;60.52;100882.41;343407;28;920;-67
2022/03/13 00:49:48;;;;;;;303.57;63.63;;;;;;;-1.10;60.16;100872.88;342502;28;1248;-67
2022/03/13 00:49:59;;;;;;;301.20;63.30;;;;;;;-1.10;60.05;100878.00;344060;28;1200;-67
2022/03/13 00:50:09;;;;;;;300.40;63.13;;;;;;;-1.08;60.15;100878.03;341270;28;1432;-68
2022/03/13 00:50:20;;;;;;;300.27;62.50;;;;;;;-1.11;60.00;100881.41;339868;29;1233;-69
2022/03/13 00:50:30;;;;;;;300.10;62.30;;;;;;;-1.10;59.85;100875.44;341355;28;1059;-67
2022/03/13 00:50:40;;;;;;;300.70;62.30;;;;;;;-1.08;60.39;100875.47;341080;28;1361;-68
2022/03/13 00:50:51;;;;;;;300.93;62.83;;;;;;;-1.09;59.88;100874.63;342763;28;940;-67
2022/03/13 00:51:01;;;;;;;303.15;63.70;;;;;;;-1.07;60.23;100875.53;343984;28;1515;-67
2022/03/13 00:51:12;;;;;;;304.67;64.03;;;;;;;-1.09;59.88;100874.63;341233;28;856;-67
2022/03/13 00:51:22;;;;;;;304.63;63.92;;;;;;;-1.07;60.53;100870.38;341508;28;827;-67
2022/03/13 00:51:33;;;;;;;303.27;63.93;;;;;;;-1.06;60.13;100878.97;340773;28;1972;-67
2022/03/13 00:51:44;;;;;;;303.45;65.10;;;;;;;-1.07;60.51;100867.81;341999;28;829;-66
2022/03/13 00:51:57;;;;;;;303.77;66.15;;;;;;;-1.08;60.60;100871.22;338588;28;1417;-66
2022/03/13 00:52:07;;;;;;;302.35;65.13;;;;;;;-1.08;60.50;100876.34;339845;28;1312;-66
2022/03/13 00:52:17;;;;;;;301.73;64.25;;;;;;;-1.08;60.61;100886.63;340988;28;1054;-66
2022/03/13 00:52:28;;;;;;;300.60;64.07;;;;;;;-1.07;60.19;100872.94;341393;28;959;-66
2022/03/13 00:52:38;;;;;;;304.92;64.63;;;;;;;-1.06;60.41;100872.13;340737;28;1282;-66
2022/03/13 00:52:48;;;;;;;305.17;63.90;;;;;;;-1.07;60.39;100867.81;340309;29;1521;-66
2022/03/13 00:52:59;;;;;;;307.17;64.57;;;;;;;-1.04;60.38;100867.03;341195;28;1516;-66
2022/03/13 00:53:09;;;;;;;305.53;64.90;;;;;;;-1.06;60.15;100874.69;341132;28;1696;-66